ロンドン/ヒースロー の空港の天気 - METARとTAF

ロンドン・ヒースロー空港 ( EGLL / LHR ) - イギリス ロンドン
飛行場実況気象(Metar)
観測時間05/28 19:20 BST (05/28 18:20 UTC)
風向・風速東 6m/s
視程10km以上
天気現象
なし
気温19℃
湿度35%
気圧1031hPa
METAREGLL 281820Z AUTO 10011KT 9999 NCD 19/03 Q1031
過去の天気等 Google飛行場航空写真 Wunderground天気予報

過去48時間のMETAR

飛行場予報(TAF)
発表時間: 5/28 18:02 BST (5/28 17:02 UTC)
予報対象時間: 28日19時 BST ~ 30日1時 BST
風向・風速東 4m/s
視程10km以上
なし
TAF EGLL 281702Z 2818/2924 09008KT CAVOK